Time;durP1;ratioP1;P1;durP2;ratioP2;P2;SDS_P1;SDS_P2;PMS_P1;PMS_P2;Temp;Humidity;BMP_temperature;BMP_pressure;BME280_temperature;BME280_humidity;BME280_pressure;Samples;Min_cycle;Max_cycle;Signal;HPM_P1;HPM_P2
2022/06/15 00:00:54;;;;;;;5.75;2.47;;;19.80;74.70;;;;;;5030728;28;20022;-78
2022/06/15 00:03:20;;;;;;;3.08;2.33;;;19.80;75.00;;;;;;5019215;28;20120;-80
2022/06/15 00:05:46;;;;;;;5.78;2.45;;;19.80;75.30;;;;;;5040947;28;20029;-80
2022/06/15 00:08:12;;;;;;;3.67;2.20;;;19.70;75.60;;;;;;5025308;28;20099;-80
2022/06/15 00:10:39;;;;;;;4.35;2.30;;;19.70;76.10;;;;;;5018747;28;20054;-80
2022/06/15 00:13:06;;;;;;;5.65;2.53;;;19.70;76.40;;;;;;5030279;28;20026;-80
2022/06/15 00:15:32;;;;;;;5.07;2.30;;;19.60;76.70;;;;;;5019799;28;20160;-80
2022/06/15 00:17:58;;;;;;;3.53;2.20;;;19.60;77.60;;;;;;5022374;28;20057;-79
2022/06/15 00:20:23;;;;;;;5.25;2.55;;;19.60;77.30;;;;;;5027856;28;20126;-78
2022/06/15 00:22:49;;;;;;;4.00;2.40;;;19.50;77.60;;;;;;5016386;28;20044;-78
2022/06/15 00:25:15;;;;;;;4.47;1.98;;;19.60;77.70;;;;;;5033748;28;20022;-79
2022/06/15 00:27:41;;;;;;;2.35;1.92;;;19.50;78.10;;;;;;5013776;28;20104;-79
2022/06/15 00:30:07;;;;;;;5.30;2.53;;;19.50;78.30;;;;;;5028425;28;20026;-78
2022/06/15 00:32:33;;;;;;;4.03;2.38;;;19.40;78.70;;;;;;5044307;28;20026;-78
2022/06/15 00:34:58;;;;;;;5.05;2.55;;;19.40;79.00;;;;;;5031503;28;20040;-78
2022/06/15 00:37:24;;;;;;;8.18;2.60;;;19.40;79.60;;;;;;5026614;28;20029;-79
2022/06/15 00:39:50;;;;;;;4.00;2.20;;;19.30;79.60;;;;;;5022679;28;20037;-82
2022/06/15 00:42:15;;;;;;;3.67;2.20;;;19.30;80.10;;;;;;5018886;28;20061;-78
2022/06/15 00:44:44;;;;;;;4.70;2.50;;;19.20;80.30;;;;;;5028972;28;20510;-79
2022/06/15 00:47:22;;;;;;;5.93;2.28;;;19.20;80.60;;;;;;5011741;28;20440;-78
2022/06/15 00:50:06;;;;;;;5.85;2.63;;;19.20;81.10;;;;;;5013531;28;20014;-79
2022/06/15 00:52:56;;;;;;;4.78;2.22;;;19.10;81.70;;;;;;5013843;28;20502;-78
2022/06/15 00:55:25;;;;;;;4.85;2.30;;;19.10;82.20;;;;;;5027209;28;20036;-79
2022/06/15 00:57:51;;;;;;;3.03;2.28;;;19.10;82.30;;;;;;5032774;28;20473;-80
2022/06/15 01:00:19;;;;;;;4.70;2.50;;;19.00;82.50;;;;;;5019351;28;20025;-78
2022/06/15 01:02:44;;;;;;;6.57;2.70;;;19.00;82.70;;;;;;5029599;28;20372;-80
2022/06/15 01:05:17;;;;;;;4.28;2.72;;;19.10;82.00;;;;;;5016438;28;20071;-79
2022/06/15 01:07:57;;;;;;;8.93;2.67;;;19.10;81.70;;;;;;5048439;28;20049;-80
2022/06/15 01:10:40;;;;;;;7.47;2.80;;;19.00;81.50;;;;;;5019635;28;20064;-78
2022/06/15 01:13:38;;;;;;;4.30;2.67;;;19.00;81.60;;;;;;5015885;28;20025;-79
2022/06/15 01:16:20;;;;;;;5.32;2.35;;;19.10;81.80;;;;;;5021651;28;20018;-78
2022/06/15 01:19:07;;;;;;;3.92;2.17;;;19.00;82.00;;;;;;5029324;28;20021;-79
2022/06/15 01:21:50;;;;;;;4.55;2.47;;;19.00;82.10;;;;;;5018727;28;20052;-78
2022/06/15 01:24:46;;;;;;;5.07;2.55;;;19.00;82.20;;;;;;5024689;28;20035;-78
2022/06/15 01:27:21;;;;;;;4.88;2.47;;;19.00;82.50;;;;;;5015024;28;20492;-80
2022/06/15 01:30:04;;;;;;;5.55;2.78;;;19.00;82.70;;;;;;5024101;28;20025;-78
2022/06/15 01:32:39;;;;;;;6.95;2.58;;;19.00;82.80;;;;;;5026449;28;20025;-78
2022/06/15 01:35:23;;;;;;;4.53;2.40;;;19.00;83.60;;;;;;5015923;28;20034;-79
2022/06/15 01:38:25;;;;;;;4.65;2.42;;;18.90;84.00;;;;;;5022519;28;20099;-79
2022/06/15 01:41:29;;;;;;;6.63;2.20;;;18.80;84.30;;;;;;5014155;28;20091;-83
2022/06/15 01:44:08;;;;;;;3.72;2.75;;;18.80;85.00;;;;;;5023197;28;20050;-80
2022/06/15 01:46:39;;;;;;;3.15;2.38;;;18.70;85.10;;;;;;5027682;28;20513;-78
2022/06/15 01:49:08;;;;;;;4.70;2.30;;;18.70;85.20;;;;;;5014668;28;20079;-78
2022/06/15 01:51:41;;;;;;;4.47;2.88;;;18.70;85.60;;;;;;5041332;28;20030;-78
2022/06/15 01:54:47;;;;;;;4.93;2.55;;;18.60;86.00;;;;;;5035067;28;20037;-78
2022/06/15 01:57:15;;;;;;;4.97;2.75;;;18.60;86.00;;;;;;4974919;28;20031;-79
2022/06/15 01:59:58;;;;;;;3.72;2.60;;;18.60;86.60;;;;;;4956183;29;20058;-79
2022/06/15 02:02:58;;;;;;;7.78;2.58;;;18.50;87.00;;;;;;4956153;29;20039;-79
2022/06/15 02:06:09;;;;;;;4.95;2.38;;;18.50;87.40;;;;;;4975011;28;20039;-80
2022/06/15 02:08:40;;;;;;;4.93;2.20;;;18.40;88.10;;;;;;4955675;29;20043;-80
2022/06/15 02:11:21;;;;;;;5.47;2.60;;;18.40;88.00;;;;;;4958802;28;20543;-79
2022/06/15 02:13:54;;;;;;;4.30;2.28;;;18.30;88.70;;;;;;4956423;29;20074;-80
2022/06/15 02:16:26;;;;;;;6.70;2.40;;;18.40;88.70;;;;;;4955911;29;20131;-80
2022/06/15 02:18:52;;;;;;;8.10;2.33;;;18.30;89.20;;;;;;4972660;28;20031;-81
2022/06/15 02:21:20;;;;;;;4.32;2.20;;;18.10;89.60;;;;;;4959257;28;20440;-80
2022/06/15 02:23:49;;;;;;;3.83;2.20;;;18.10;90.00;;;;;;4957449;28;20070;-80
2022/06/15 02:26:17;;;;;;;5.65;2.60;;;18.00;90.30;;;;;;4962764;28;20062;-81
2022/06/15 02:28:49;;;;;;;3.15;2.30;;;18.00;90.40;;;;;;4999725;28;20041;-80
2022/06/15 02:31:15;;;;;;;3.72;2.38;;;18.00;90.60;;;;;;5031166;28;20115;-80
2022/06/15 02:33:48;;;;;;;6.03;2.67;;;17.90;90.50;;;;;;5039767;28;20025;-80
2022/06/15 02:36:14;;;;;;;4.55;2.50;;;17.90;90.60;;;;;;5022244;28;20030;-80
2022/06/15 02:38:39;;;;;;;4.50;2.67;;;17.90;90.80;;;;;;5047460;28;20032;-78
2022/06/15 02:41:05;;;;;;;6.68;2.28;;;17.90;90.90;;;;;;5032393;28;20440;-78
2022/06/15 02:43:32;;;;;;;5.30;2.58;;;17.90;91.10;;;;;;5037269;28;20025;-79
2022/06/15 02:46:01;;;;;;;5.60;2.00;;;17.90;91.20;;;;;;5024806;28;20026;-80
2022/06/15 02:48:26;;;;;;;4.82;2.45;;;17.80;91.40;;;;;;5029602;28;20052;-78
2022/06/15 02:51:06;;;;;;;6.18;2.47;;;17.80;91.70;;;;;;5018430;28;20060;-79
2022/06/15 02:53:33;;;;;;;3.97;2.22;;;17.70;91.80;;;;;;5027905;28;20029;-78
2022/06/15 02:56:01;;;;;;;4.70;2.58;;;17.70;91.90;;;;;;5030248;28;20045;-79
2022/06/15 02:58:28;;;;;;;4.40;2.45;;;17.60;92.20;;;;;;5044731;28;20485;-79
2022/06/15 03:00:55;;;;;;;5.15;2.45;;;17.60;92.40;;;;;;5017042;28;20029;-80
2022/06/15 03:03:23;;;;;;;4.50;2.50;;;17.50;92.50;;;;;;5028563;28;20490;-78
2022/06/15 03:05:49;;;;;;;3.92;2.33;;;17.40;92.60;;;;;;5023464;28;20053;-79
2022/06/15 03:08:16;;;;;;;3.70;2.60;;;17.40;92.80;;;;;;5032987;28;20116;-79
2022/06/15 03:10:42;;;;;;;5.38;2.72;;;17.50;92.90;;;;;;5034131;28;20026;-79
2022/06/15 03:13:08;;;;;;;9.30;2.65;;;17.50;93.10;;;;;;5030868;28;20469;-79
2022/06/15 03:15:34;;;;;;;6.10;2.80;;;17.50;93.20;;;;;;5036940;28;20022;-79
2022/06/15 03:18:00;;;;;;;5.93;3.00;;;17.60;93.30;;;;;;5024133;28;20105;-79
2022/06/15 03:20:25;;;;;;;4.43;2.72;;;17.60;93.40;;;;;;5028970;28;20067;-79
2022/06/15 03:22:51;;;;;;;3.65;2.70;;;17.50;93.40;;;;;;5033316;28;20033;-82
2022/06/15 03:25:17;;;;;;;7.28;2.78;;;17.50;93.60;;;;;;5024001;28;20071;-79
2022/06/15 03:27:43;;;;;;;5.13;2.95;;;17.50;93.80;;;;;;5026166;28;20026;-78
2022/06/15 03:30:09;;;;;;;5.78;2.92;;;17.60;94.00;;;;;;5014071;28;20032;-79
2022/06/15 03:32:35;;;;;;;4.85;2.50;;;17.50;94.20;;;;;;5030185;28;20033;-78
2022/06/15 03:35:02;;;;;;;3.83;2.47;;;17.50;94.30;;;;;;5029578;28;20033;-78
2022/06/15 03:37:28;;;;;;;5.47;2.67;;;17.60;94.60;;;;;;5021294;28;20075;-78
2022/06/15 03:39:54;;;;;;;5.20;2.42;;;17.60;94.70;;;;;;5032619;28;20454;-78
2022/06/15 03:42:22;;;;;;;5.63;2.85;;;17.60;94.80;;;;;;5019935;28;20030;-78
2022/06/15 03:44:49;;;;;;;5.70;2.75;;;17.60;95.00;;;;;;5045610;28;20384;-78
2022/06/15 03:47:17;;;;;;;4.57;2.95;;;17.60;95.10;;;;;;5034005;28;20022;-79
2022/06/15 03:49:48;;;;;;;3.90;2.90;;;17.60;95.20;;;;;;5025833;28;20018;-78
2022/06/15 03:52:15;;;;;;;6.47;2.67;;;17.60;95.30;;;;;;5042086;28;20388;-78
2022/06/15 03:54:40;;;;;;;6.40;2.45;;;17.60;95.30;;;;;;5017588;28;20101;-78
2022/06/15 03:57:07;;;;;;;3.38;2.30;;;17.70;95.20;;;;;;5013893;28;20533;-78
2022/06/15 03:59:33;;;;;;;3.83;2.30;;;17.60;95.00;;;;;;5021677;28;20036;-80
2022/06/15 04:01:59;;;;;;;3.95;2.10;;;17.60;95.10;;;;;;5022534;28;20029;-80
2022/06/15 04:04:24;;;;;;;4.30;2.60;;;17.60;95.20;;;;;;5043473;28;20077;-80
2022/06/15 04:06:51;;;;;;;4.00;2.47;;;17.60;95.30;;;;;;5017812;28;20045;-79
2022/06/15 04:09:21;;;;;;;3.88;2.60;;;17.50;95.70;;;;;;5014671;28;20026;-77
2022/06/15 04:12:01;;;;;;;4.10;2.15;;;17.50;95.80;;;;;;5022357;28;20022;-76
2022/06/15 04:14:30;;;;;;;7.57;2.47;;;17.50;95.80;;;;;;5019809;28;20541;-76
2022/06/15 04:16:57;;;;;;;4.50;2.20;;;17.40;94.80;;;;;;5043992;28;20367;-76
2022/06/15 04:19:25;;;;;;;4.95;2.50;;;17.40;94.30;;;;;;5034389;28;20036;-77
2022/06/15 04:21:51;;;;;;;4.30;2.30;;;17.50;94.30;;;;;;5024262;28;20049;-76
2022/06/15 04:24:17;;;;;;;7.88;2.90;;;17.40;94.00;;;;;;5034592;28;20037;-77
2022/06/15 04:26:45;;;;;;;3.22;2.28;;;17.40;94.00;;;;;;5013625;28;20030;-76
2022/06/15 04:29:11;;;;;;;3.60;2.30;;;17.40;94.20;;;;;;5011592;28;20391;-77
2022/06/15 04:31:38;;;;;;;4.53;2.28;;;17.40;94.70;;;;;;5035868;28;20024;-76
2022/06/15 04:34:09;;;;;;;6.35;2.80;;;17.20;95.00;;;;;;5020312;28;20458;-76
2022/06/15 04:36:35;;;;;;;4.90;2.35;;;17.30;95.30;;;;;;5044066;28;20029;-76
2022/06/15 04:39:01;;;;;;;4.82;2.38;;;17.30;95.10;;;;;;5015088;28;20034;-77
2022/06/15 04:41:26;;;;;;;3.90;2.33;;;17.30;95.00;;;;;;5027401;28;20073;-78
2022/06/15 04:43:52;;;;;;;4.47;2.38;;;17.40;95.00;;;;;;5012621;28;20513;-79
2022/06/15 04:46:18;;;;;;;3.85;2.25;;;17.40;95.00;;;;;;5013214;28;20091;-78
2022/06/15 04:48:43;;;;;;;4.47;2.60;;;17.30;95.10;;;;;;5029725;28;20029;-78
2022/06/15 04:51:15;;;;;;;3.40;2.40;;;17.40;95.20;;;;;;5028985;28;20026;-78
2022/06/15 04:53:41;;;;;;;4.80;2.28;;;17.40;95.20;;;;;;5019970;28;20017;-77
2022/06/15 04:56:07;;;;;;;5.57;2.35;;;17.40;95.10;;;;;;5023905;28;20069;-78
2022/06/15 04:58:33;;;;;;;3.88;2.55;;;17.40;95.10;;;;;;5017205;28;20029;-77
2022/06/15 05:01:00;;;;;;;5.25;2.60;;;17.40;95.10;;;;;;5044342;28;20108;-78
2022/06/15 05:03:25;;;;;;;4.60;2.53;;;17.40;94.90;;;;;;5018869;28;20071;-78
2022/06/15 05:05:58;;;;;;;3.40;2.20;;;17.40;95.10;;;;;;5022047;28;20041;-84
2022/06/15 05:08:24;;;;;;;5.25;2.50;;;17.40;95.40;;;;;;5028641;28;20026;-79
2022/06/15 05:10:51;;;;;;;4.82;2.33;;;17.40;95.50;;;;;;5044788;28;20463;-80
2022/06/15 05:13:17;;;;;;;3.47;2.72;;;17.40;95.30;;;;;;5033134;28;20021;-80
2022/06/15 05:15:42;;;;;;;4.03;2.47;;;17.40;95.20;;;;;;5023820;28;20028;-79
2022/06/15 05:18:08;;;;;;;5.20;2.80;;;17.40;95.40;;;;;;5023994;28;20391;-79
2022/06/15 05:20:41;;;;;;;5.97;2.53;;;17.40;95.40;;;;;;5032962;28;20497;-79
2022/06/15 05:23:06;;;;;;;3.97;2.30;;;17.50;95.60;;;;;;5014536;28;20047;-79
2022/06/15 05:25:32;;;;;;;4.82;2.50;;;17.50;95.70;;;;;;5030894;28;20478;-79
2022/06/15 05:27:58;;;;;;;6.07;2.60;;;17.50;96.00;;;;;;5022751;28;20026;-80
2022/06/15 05:30:23;;;;;;;5.93;2.30;;;17.50;95.80;;;;;;5031701;28;20120;-79
2022/06/15 05:32:49;;;;;;;5.07;2.55;;;17.50;96.10;;;;;;5022636;28;20429;-79
2022/06/15 05:35:15;;;;;;;4.00;2.70;;;17.50;96.30;;;;;;5033561;28;20061;-79
2022/06/15 05:37:41;;;;;;;5.35;2.60;;;17.50;96.50;;;;;;5035104;28;20128;-79
2022/06/15 05:40:07;;;;;;;4.55;2.53;;;17.60;96.20;;;;;;5045821;28;20025;-79
2022/06/15 05:42:34;;;;;;;6.18;2.38;;;17.60;96.00;;;;;;5039990;28;20104;-79
2022/06/15 05:45:01;;;;;;;4.75;2.22;;;17.70;96.10;;;;;;5035059;28;20433;-79
2022/06/15 05:47:28;;;;;;;4.47;2.55;;;17.70;96.30;;;;;;5040719;28;20021;-78
2022/06/15 05:49:54;;;;;;;7.88;2.13;;;17.70;95.90;;;;;;5027650;28;20475;-78
2022/06/15 05:52:20;;;;;;;3.25;2.28;;;17.90;95.50;;;;;;5047742;28;20103;-78
2022/06/15 05:54:46;;;;;;;3.92;2.15;;;17.90;95.20;;;;;;5030855;28;20075;-77
2022/06/15 05:57:23;;;;;;;5.50;2.20;;;18.10;94.60;;;;;;5018918;28;20443;-78
2022/06/15 05:59:51;;;;;;;7.40;2.60;;;18.10;94.60;;;;;;5028212;28;20030;-78
2022/06/15 06:02:19;;;;;;;4.45;2.13;;;18.10;94.70;;;;;;5030344;28;20022;-77
2022/06/15 06:04:45;;;;;;;7.15;2.78;;;18.10;95.00;;;;;;5020802;28;20068;-78
2022/06/15 06:07:11;;;;;;;5.95;2.60;;;18.10;95.00;;;;;;5053902;28;20270;-78
2022/06/15 06:09:37;;;;;;;5.10;2.60;;;18.20;95.40;;;;;;5031467;28;20026;-78
2022/06/15 06:12:04;;;;;;;5.55;2.70;;;18.30;95.20;;;;;;5033717;28;20121;-78
2022/06/15 06:14:30;;;;;;;6.70;2.35;;;18.30;95.10;;;;;;5033379;28;20463;-78
2022/06/15 06:16:56;;;;;;;8.77;2.60;;;18.40;95.40;;;;;;5020720;28;20030;-79
2022/06/15 06:19:21;;;;;;;7.05;2.65;;;18.50;95.40;;;;;;5033708;28;20022;-77
2022/06/15 06:21:47;;;;;;;4.50;2.33;;;18.50;94.80;;;;;;5027840;28;20026;-79
2022/06/15 06:24:13;;;;;;;6.40;2.40;;;18.50;94.70;;;;;;5030590;28;20040;-78
2022/06/15 06:26:39;;;;;;;4.25;2.45;;;18.60;94.50;;;;;;5054089;28;20024;-78
2022/06/15 06:29:06;;;;;;;6.97;2.50;;;18.60;94.20;;;;;;5053907;28;20026;-80
2022/06/15 06:31:32;;;;;;;5.85;2.50;;;18.70;94.40;;;;;;5040787;28;20104;-80
2022/06/15 06:33:58;;;;;;;6.47;2.50;;;18.70;94.10;;;;;;5059910;28;20064;-79
2022/06/15 06:36:41;;;;;;;5.22;2.70;;;18.80;94.30;;;;;;5040897;28;20088;-78
2022/06/15 06:39:13;;;;;;;3.35;2.15;;;18.90;93.80;;;;;;5017764;28;20097;-78
2022/06/15 06:41:39;;;;;;;3.15;2.15;;;18.80;93.20;;;;;;5038646;28;20120;-78
2022/06/15 06:44:05;;;;;;;6.85;2.53;;;18.90;93.40;;;;;;5022301;28;20490;-77
2022/06/15 06:46:35;;;;;;;5.28;2.20;;;18.90;93.40;;;;;;5030842;28;20108;-77
2022/06/15 06:49:02;;;;;;;4.85;2.35;;;19.00;93.70;;;;;;5046947;28;20022;-78
2022/06/15 06:51:28;;;;;;;4.90;2.22;;;19.00;93.40;;;;;;5021468;28;20056;-78
2022/06/15 06:53:55;;;;;;;4.95;2.45;;;19.00;93.20;;;;;;5026773;28;20029;-80
2022/06/15 06:56:20;;;;;;;4.28;2.58;;;19.00;93.20;;;;;;5037081;28;20456;-79
2022/06/15 06:58:46;;;;;;;6.55;3.05;;;19.20;92.90;;;;;;5031038;28;20068;-78
2022/06/15 07:01:12;;;;;;;7.68;2.83;;;19.20;92.50;;;;;;5013965;28;20030;-78
2022/06/15 07:03:37;;;;;;;6.25;2.50;;;19.20;92.50;;;;;;5021536;28;20124;-78
2022/06/15 07:06:08;;;;;;;5.50;2.60;;;19.30;92.60;;;;;;5023460;28;20136;-78
2022/06/15 07:08:37;;;;;;;4.00;2.47;;;19.30;92.80;;;;;;5042544;28;20494;-80
2022/06/15 07:11:11;;;;;;;4.32;2.13;;;19.40;93.10;;;;;;5017838;28;20112;-77
2022/06/15 07:13:37;;;;;;;4.60;2.25;;;19.40;93.20;;;;;;5050480;28;20036;-77
2022/06/15 07:16:08;;;;;;;7.25;2.30;;;19.40;92.90;;;;;;5022716;28;20464;-79
2022/06/15 07:18:34;;;;;;;6.25;2.30;;;19.40;92.80;;;;;;5045776;28;20044;-78
2022/06/15 07:21:13;;;;;;;4.15;2.65;;;19.50;92.40;;;;;;5017046;28;20409;-78
2022/06/15 07:23:44;;;;;;;4.82;2.47;;;19.50;92.30;;;;;;5027194;28;20072;-78
2022/06/15 07:26:14;;;;;;;5.07;2.40;;;19.50;92.10;;;;;;5029694;28;20460;-78
2022/06/15 07:28:41;;;;;;;6.63;2.10;;;19.50;92.20;;;;;;5030979;28;20463;-78
2022/06/15 07:31:08;;;;;;;7.85;2.40;;;19.50;92.30;;;;;;5017066;28;20159;-77
2022/06/15 07:33:35;;;;;;;3.28;2.20;;;19.60;92.30;;;;;;5026368;28;20026;-79
2022/06/15 07:36:00;;;;;;;3.38;2.15;;;19.70;92.10;;;;;;5040524;28;20060;-78
2022/06/15 07:38:26;;;;;;;3.92;2.15;;;19.70;92.30;;;;;;5020891;28;20037;-78
2022/06/15 07:40:53;;;;;;;3.78;2.22;;;19.80;92.40;;;;;;5046237;28;20033;-80
2022/06/15 07:43:20;;;;;;;9.20;2.45;;;19.80;92.10;;;;;;5034993;28;20083;-79
2022/06/15 07:45:46;;;;;;;5.43;2.58;;;19.80;91.80;;;;;;5024626;28;20406;-78
2022/06/15 07:50:57;;;;;;;6.80;2.70;;;19.90;91.90;;;;;;5017161;28;20033;-78
2022/06/15 07:53:23;;;;;;;4.82;2.50;;;20.00;92.00;;;;;;5027504;28;20022;-78
2022/06/15 07:55:52;;;;;;;4.35;2.30;;;20.10;91.90;;;;;;5039846;28;20028;-79
2022/06/15 07:58:18;;;;;;;5.90;2.50;;;20.10;91.80;;;;;;5014473;28;20096;-78
2022/06/15 08:00:46;;;;;;;3.72;2.30;;;20.20;91.70;;;;;;5031501;28;20113;-80
2022/06/15 08:03:13;;;;;;;4.18;2.17;;;20.20;91.40;;;;;;5024274;28;20462;-79
2022/06/15 08:05:45;;;;;;;4.43;2.17;;;20.20;91.50;;;;;;5029244;28;20038;-80
2022/06/15 08:08:20;;;;;;;6.40;2.70;;;20.30;91.50;;;;;;5037700;28;20124;-79
2022/06/15 08:10:47;;;;;;;8.45;2.50;;;20.30;91.40;;;;;;5038529;28;20120;-79
2022/06/15 08:13:14;;;;;;;4.43;2.30;;;20.40;91.30;;;;;;5021755;28;20497;-78
2022/06/15 08:15:41;;;;;;;6.60;3.22;;;20.50;91.60;;;;;;5035733;28;20026;-79
2022/06/15 08:18:13;;;;;;;5.15;2.22;;;20.60;91.10;;;;;;5022378;28;20025;-79
2022/06/15 08:20:47;;;;;;;4.70;2.33;;;20.70;91.40;;;;;;5021199;28;20125;-78
2022/06/15 08:23:17;;;;;;;4.35;2.58;;;20.70;91.60;;;;;;5022657;28;20104;-80
2022/06/15 08:25:47;;;;;;;4.65;3.10;;;20.70;91.60;;;;;;5016491;28;20088;-79
2022/06/15 08:28:15;;;;;;;12.32;3.55;;;20.70;91.50;;;;;;5040229;28;20446;-78
2022/06/15 08:30:41;;;;;;;6.90;3.00;;;20.70;91.90;;;;;;5035038;28;20030;-78
2022/06/15 08:33:09;;;;;;;8.50;2.75;;;20.80;92.30;;;;;;5037770;28;20026;-80
2022/06/15 08:35:38;;;;;;;7.15;2.80;;;20.90;92.00;;;;;;5035888;28;20056;-79
2022/06/15 08:38:09;;;;;;;6.03;3.17;;;20.90;91.80;;;;;;5021625;28;20388;-78
2022/06/15 08:41:03;;;;;;;7.90;3.20;;;21.00;91.80;;;;;;5038919;28;20022;-79
2022/06/15 08:44:12;;;;;;;5.60;2.75;;;21.10;91.80;;;;;;5021857;28;20036;-78
2022/06/15 08:47:08;;;;;;;5.35;2.95;;;21.10;91.50;;;;;;5038182;28;20022;-79
2022/06/15 08:50:01;;;;;;;5.47;2.80;;;21.10;91.00;;;;;;5020518;28;20386;-79
2022/06/15 08:52:45;;;;;;;7.65;2.97;;;21.20;90.70;;;;;;5020087;28;20101;-79
2022/06/15 08:55:20;;;;;;;7.68;3.22;;;21.30;90.30;;;;;;5022072;28;20025;-78
2022/06/15 08:57:53;;;;;;;4.82;2.85;;;21.30;90.10;;;;;;5037292;28;20049;-79
2022/06/15 09:00:28;;;;;;;7.95;2.53;;;21.40;88.50;;;;;;5021674;28;20026;-79
2022/06/15 09:03:11;;;;;;;6.32;2.40;;;21.40;87.10;;;;;;5017648;28;20022;-79
2022/06/15 09:05:55;;;;;;;5.03;2.65;;;21.50;85.90;;;;;;5021195;28;20041;-78
2022/06/15 09:08:49;;;;;;;7.53;2.28;;;21.70;82.90;;;;;;5021236;28;20022;-79
2022/06/15 09:11:47;;;;;;;4.75;2.10;;;21.80;80.80;;;;;;5037744;28;20072;-78
2022/06/15 09:14:35;;;;;;;4.40;2.17;;;21.80;81.70;;;;;;5019114;28;20084;-78
2022/06/15 09:17:28;;;;;;;3.42;2.00;;;21.90;81.30;;;;;;5036371;28;20390;-78
2022/06/15 09:20:13;;;;;;;7.15;2.80;;;21.90;81.00;;;;;;5018966;28;20034;-80
2022/06/15 09:22:46;;;;;;;5.93;2.63;;;22.10;78.60;;;;;;5037095;28;20105;-79
2022/06/15 09:25:18;;;;;;;2.80;1.77;;;22.10;77.30;;;;;;5036976;28;20340;-78
2022/06/15 09:27:53;;;;;;;4.03;1.85;;;22.20;77.30;;;;;;5035617;28;20537;-80
2022/06/15 09:30:21;;;;;;;4.47;2.00;;;22.10;78.50;;;;;;5040236;28;20025;-84
2022/06/15 09:32:59;;;;;;;3.20;2.13;;;22.20;78.10;;;;;;5029579;28;20036;-84
2022/06/15 09:35:37;;;;;;;5.18;2.20;;;22.40;77.10;;;;;;5034934;28;20479;-83
2022/06/15 09:38:09;;;;;;;5.80;2.30;;;22.40;78.10;;;;;;5027402;28;20037;-80
2022/06/15 09:40:46;;;;;;;4.20;2.03;;;22.50;78.40;;;;;;5042999;28;20021;-80
2022/06/15 09:43:39;;;;;;;5.85;2.33;;;22.60;76.70;;;;;;5044036;28;20463;-80
2022/06/15 09:46:38;;;;;;;4.15;2.13;;;22.60;77.50;;;;;;5021612;28;20046;-81
2022/06/15 09:49:14;;;;;;;6.30;2.25;;;22.60;77.70;;;;;;5023269;28;20033;-82
2022/06/15 09:52:05;;;;;;;4.32;2.42;;;22.90;77.10;;;;;;5032638;28;20021;-83
2022/06/15 09:54:53;;;;;;;4.50;2.50;;;23.00;75.60;;;;;;5013287;28;20088;-84
2022/06/15 09:57:19;;;;;;;5.80;2.28;;;23.00;76.30;;;;;;5013459;28;20155;-84
2022/06/15 09:59:45;;;;;;;4.50;2.25;;;23.00;75.00;;;;;;5013287;28;20037;-82
2022/06/15 10:02:27;;;;;;;5.57;2.08;;;23.20;75.00;;;;;;5024723;28;20818;-86
2022/06/15 10:04:53;;;;;;;7.40;2.50;;;23.10;75.70;;;;;;5018931;28;20053;-86
2022/06/15 10:07:28;;;;;;;3.13;2.30;;;23.20;74.60;;;;;;5033926;28;20044;-84
2022/06/15 10:10:34;;;;;;;3.95;2.25;;;23.30;74.40;;;;;;5022989;28;20022;-83
2022/06/15 10:13:22;;;;;;;5.55;2.58;;;23.40;74.40;;;;;;4998604;28;20053;-81
2022/06/15 10:16:14;;;;;;;4.63;2.25;;;23.40;75.10;;;;;;5015366;28;20058;-81
2022/06/15 10:18:48;;;;;;;11.55;2.65;;;23.50;75.00;;;;;;5028237;28;20475;-81
2022/06/15 10:21:13;;;;;;;7.65;2.45;;;23.60;74.30;;;;;;5032451;28;20037;-80
2022/06/15 10:24:01;;;;;;;4.78;1.98;;;23.60;73.20;;;;;;5022882;28;20021;-81
2022/06/15 10:26:26;;;;;;;5.90;2.38;;;23.60;73.90;;;;;;5030840;28;20021;-80
2022/06/15 10:28:53;;;;;;;7.05;2.17;;;23.80;73.30;;;;;;5018484;28;20486;-90
2022/06/15 10:31:27;;;;;;;6.07;2.28;;;23.80;73.90;;;;;;5030539;28;20092;-80
2022/06/15 10:33:55;;;;;;;5.28;2.70;;;23.70;73.40;;;;;;5025135;28;20138;-84
2022/06/15 10:36:33;;;;;;;6.43;2.30;;;23.80;73.20;;;;;;5024919;28;20047;-80
2022/06/15 10:39:05;;;;;;;4.90;2.25;;;23.90;73.60;;;;;;5035375;28;20026;-89
2022/06/15 10:41:48;;;;;;;4.68;2.55;;;23.90;76.20;;;;;;5029329;28;20022;-88
2022/06/15 10:44:41;;;;;;;5.47;2.55;;;24.10;74.50;;;;;;5045459;28;20057;-90
2022/06/15 10:47:20;;;;;;;7.00;2.35;;;24.20;74.60;;;;;;5018403;28;20022;-84
2022/06/15 10:49:49;;;;;;;6.60;1.90;;;24.30;72.60;;;;;;5027312;28;20038;-82
2022/06/15 10:52:37;;;;;;;4.93;2.25;;;24.40;72.40;;;;;;5031122;28;20451;-84
2022/06/15 11:04:25;;;;;;;4.78;2.50;;;24.40;71.00;;;;;;5021244;28;20462;-79
2022/06/15 11:07:05;;;;;;;7.88;2.33;;;24.50;69.90;;;;;;5038898;28;20470;-79
2022/06/15 11:09:41;;;;;;;2.53;1.88;;;24.50;70.10;;;;;;5039791;28;20455;-80
2022/06/15 11:12:23;;;;;;;6.18;2.17;;;24.50;70.10;;;;;;5022849;28;20061;-80
2022/06/15 11:15:21;;;;;;;5.50;1.98;;;24.70;69.60;;;;;;5022854;28;20061;-80
2022/06/15 11:18:03;;;;;;;2.38;1.90;;;24.70;68.80;;;;;;5025806;28;20026;-81
2022/06/15 11:20:50;;;;;;;15.32;3.05;;;24.60;69.60;;;;;;5040320;28;20108;-81
2022/06/15 11:23:42;;;;;;;8.68;4.15;;;24.70;70.00;;;;;;5037508;28;20032;-80
2022/06/15 11:29:06;;;;;;;4.82;2.00;;;24.80;69.50;;;;;;5025090;28;20092;-81
2022/06/15 11:31:34;;;;;;;4.82;2.22;;;24.70;68.60;;;;;;5021651;28;20022;-82
2022/06/15 11:34:05;;;;;;;3.78;2.25;;;24.70;68.30;;;;;;5024073;28;20022;-80
2022/06/15 11:36:32;;;;;;;5.78;2.00;;;24.90;66.60;;;;;;5025071;28;20054;-81
2022/06/15 11:39:12;;;;;;;13.07;1.65;;;25.00;65.60;;;;;;5037871;28;20026;-80
2022/06/15 11:41:47;;;;;;;3.88;1.60;;;25.30;62.00;;;;;;5037302;28;20080;-80
2022/06/15 11:44:24;;;;;;;3.78;1.90;;;25.40;60.10;;;;;;5040185;28;20058;-80
2022/06/15 11:47:08;;;;;;;3.25;1.30;;;25.40;61.60;;;;;;5022262;28;20021;-81
2022/06/15 11:49:48;;;;;;;1.70;1.38;;;25.40;56.00;;;;;;5039059;28;20045;-82
2022/06/15 11:52:32;;;;;;;3.28;1.52;;;25.50;56.60;;;;;;5023180;28;20045;-81
2022/06/15 11:55:20;;;;;;;4.90;1.73;;;25.50;57.40;;;;;;5020234;28;20543;-81
2022/06/15 11:58:03;;;;;;;3.60;1.52;;;25.60;56.10;;;;;;5045170;28;20025;-81
2022/06/15 12:00:38;;;;;;;3.85;1.50;;;25.70;54.60;;;;;;5021873;28;20093;-80
2022/06/15 12:03:14;;;;;;;2.00;1.38;;;25.80;53.20;;;;;;5039263;28;20037;-79
2022/06/15 12:05:51;;;;;;;2.90;1.40;;;25.80;52.60;;;;;;5021384;28;20038;-81
2022/06/15 12:08:43;;;;;;;3.60;1.35;;;25.90;54.90;;;;;;5035916;28;20034;-81
2022/06/15 12:14:34;;;;;;;1.55;1.20;;;26.00;54.90;;;;;;5022335;28;20033;-78
2022/06/15 12:17:14;;;;;;;3.67;1.38;;;26.10;54.40;;;;;;5021232;28;20379;-81
2022/06/15 12:19:46;;;;;;;3.30;1.48;;;26.10;55.20;;;;;;5020980;28;20330;-79
2022/06/15 12:22:35;;;;;;;1.48;1.20;;;26.10;55.30;;;;;;5038685;28;20494;-79
2022/06/15 12:25:09;;;;;;;1.45;0.90;;;26.20;49.80;;;;;;5021087;28;20029;-79
2022/06/15 12:27:57;;;;;;;1.90;1.10;;;26.50;49.10;;;;;;5025502;28;20028;-78
2022/06/15 12:30:42;;;;;;;4.07;1.27;;;26.70;48.70;;;;;;5019818;28;20025;-77
2022/06/15 12:33:25;;;;;;;2.90;1.25;;;26.80;48.50;;;;;;5032236;28;20036;-79
2022/06/15 12:36:09;;;;;;;3.97;1.23;;;26.80;49.80;;;;;;5039693;28;20391;-80
2022/06/15 12:38:56;;;;;;;3.58;1.10;;;26.70;50.70;;;;;;5028296;28;20026;-78
2022/06/15 12:44:35;;;;;;;3.05;1.60;;;26.90;52.30;;;;;;5020314;28;20057;-78
2022/06/15 12:47:02;;;;;;;3.75;1.60;;;27.00;53.30;;;;;;5030254;28;20029;-78
2022/06/15 12:49:44;;;;;;;2.65;1.33;;;27.10;53.40;;;;;;5031622;28;20141;-78
2022/06/15 12:52:16;;;;;;;1.63;1.50;;;27.20;52.30;;;;;;5020790;28;20426;-77
2022/06/15 12:55:03;;;;;;;92.50;48.25;;;27.50;51.90;;;;;;5039398;28;20030;-77
2022/06/15 12:57:47;;;;;;;16.42;10.38;;;27.70;51.00;;;;;;5035577;28;20377;-79
2022/06/15 13:00:35;;;;;;;7.35;3.05;;;27.90;50.80;;;;;;5023779;28;20041;-78
2022/06/15 13:03:27;;;;;;;5.63;2.00;;;28.20;50.10;;;;;;5029109;28;20060;-78
2022/06/15 13:06:13;;;;;;;;;;;28.50;49.40;;;;;;5018335;28;20034;-84
2022/06/15 13:08:38;;;;;;;3.83;1.60;;;28.70;48.90;;;;;;5010630;28;20381;-81
2022/06/15 13:11:30;;;;;;;5.05;2.05;;;29.00;49.00;;;;;;5020106;28;20038;-79
2022/06/15 13:14:11;;;;;;;2.85;1.77;;;29.20;51.30;;;;;;5034252;28;20371;-81
2022/06/15 13:17:07;;;;;;;3.22;1.70;;;29.40;49.80;;;;;;5039846;28;20112;-80
2022/06/15 13:19:44;;;;;;;4.65;1.80;;;29.60;48.40;;;;;;5038912;28;20029;-81
2022/06/15 13:22:15;;;;;;;4.20;1.30;;;29.90;47.80;;;;;;5038590;28;20117;-81
2022/06/15 13:25:19;;;;;;;2.47;1.20;;;30.10;45.60;;;;;;5034950;28;20041;-80
2022/06/15 13:27:54;;;;;;;2.63;1.10;;;30.30;44.90;;;;;;5027539;28;20034;-81
2022/06/15 13:30:30;;;;;;;2.88;1.20;;;30.50;43.50;;;;;;5035924;28;20072;-81
2022/06/15 13:32:57;;;;;;;3.38;1.33;;;30.70;42.90;;;;;;5039690;28;20030;-82
2022/06/15 13:35:33;;;;;;;3.65;1.50;;;31.00;43.90;;;;;;5035856;28;20030;-83
2022/06/15 13:38:03;;;;;;;2.03;1.30;;;31.30;42.10;;;;;;5039297;28;20022;-83
2022/06/15 13:40:54;;;;;;;4.33;1.30;;;31.60;41.50;;;;;;5036422;28;20029;-82